Time;durP1;ratioP1;P1;durP2;ratioP2;P2;SDS_P1;SDS_P2;PMS_P1;PMS_P2;Temp;Humidity;BMP_temperature;BMP_pressure;BME280_temperature;BME280_humidity;BME280_pressure;Samples;Min_cycle;Max_cycle;Signal;HPM_P1;HPM_P2
2021/12/31 00:00:05;;;;;;;13.63;3.00;;;13.00;99.90;;;;;;5079245;28;20120;-80
2021/12/31 00:02:31;;;;;;;11.10;3.00;;;13.00;99.90;;;;;;5096501;28;20493;-81
2021/12/31 00:04:56;;;;;;;14.33;2.77;;;13.00;99.90;;;;;;5095988;28;20044;-79
2021/12/31 00:07:22;;;;;;;15.43;2.40;;;13.00;99.90;;;;;;5096347;28;20092;-80
2021/12/31 00:09:48;;;;;;;9.63;2.50;;;13.00;99.90;;;;;;5094958;28;20035;-81
2021/12/31 00:12:14;;;;;;;15.93;2.83;;;13.00;99.90;;;;;;5096648;28;20104;-80
2021/12/31 00:14:39;;;;;;;14.03;3.33;;;13.00;99.90;;;;;;5062328;28;20035;-79
2021/12/31 00:17:07;;;;;;;13.70;2.83;;;13.00;99.90;;;;;;5094322;28;20496;-79
2021/12/31 00:19:38;;;;;;;14.07;3.17;;;13.00;99.90;;;;;;5078961;28;20036;-81
2021/12/31 00:22:22;;;;;;;13.77;2.97;;;13.00;99.90;;;;;;5078431;28;20073;-79
2021/12/31 00:24:48;;;;;;;;;;;13.00;99.90;;;;;;5075439;28;20122;-81
2021/12/31 00:27:14;;;;;;;15.17;2.73;;;13.00;99.90;;;;;;5062584;27;20411;-81
2021/12/31 00:29:40;;;;;;;13.83;2.40;;;13.00;99.90;;;;;;5080781;28;20416;-81
2021/12/31 00:32:07;;;;;;;19.20;3.33;;;13.00;99.90;;;;;;5079165;28;20043;-81
2021/12/31 00:34:33;;;;;;;13.53;2.50;;;13.00;99.90;;;;;;5092941;28;20126;-79
2021/12/31 00:36:59;;;;;;;15.97;2.67;;;13.10;99.90;;;;;;5077338;28;20130;-79
2021/12/31 00:39:25;;;;;;;14.40;2.90;;;13.10;99.90;;;;;;5094966;28;20409;-81
2021/12/31 00:41:50;;;;;;;15.67;2.77;;;13.10;99.90;;;;;;5078930;28;20074;-82
2021/12/31 00:44:16;;;;;;;12.83;2.93;;;13.10;99.90;;;;;;5058898;28;20235;-81
2021/12/31 00:46:42;;;;;;;16.87;3.07;;;13.10;99.90;;;;;;5094786;28;20516;-81
2021/12/31 00:49:09;;;;;;;11.20;2.87;;;13.10;99.90;;;;;;5078421;28;20047;-81
2021/12/31 00:51:35;;;;;;;15.93;3.30;;;13.10;99.90;;;;;;5078581;28;20077;-80
2021/12/31 00:54:00;;;;;;;11.07;2.37;;;13.10;99.90;;;;;;5075485;28;20048;-81
2021/12/31 00:56:26;;;;;;;15.07;3.37;;;13.10;99.90;;;;;;5077576;28;20047;-80
2021/12/31 00:58:52;;;;;;;12.43;3.07;;;13.10;99.90;;;;;;5078222;28;20047;-80
2021/12/31 01:01:20;;;;;;;19.47;3.20;;;13.10;99.90;;;;;;5063274;28;20046;-81
2021/12/31 01:03:48;;;;;;;10.33;2.47;;;13.10;99.90;;;;;;5061932;28;20039;-82
2021/12/31 01:06:15;;;;;;;13.20;2.83;;;13.10;99.90;;;;;;5092392;28;20130;-81
2021/12/31 01:08:41;;;;;;;13.37;2.80;;;13.10;99.90;;;;;;5077958;28;20040;-81
2021/12/31 01:11:08;;;;;;;10.77;3.00;;;13.10;99.90;;;;;;5078732;28;20067;-82
2021/12/31 01:13:51;;;;;;;11.60;3.30;;;13.10;99.90;;;;;;5094910;28;20118;-82
2021/12/31 01:16:19;;;;;;;15.77;3.22;;;13.20;99.90;;;;;;5077691;28;20039;-79
2021/12/31 01:21:21;;;;;;;12.23;2.63;;;13.20;99.90;;;;;;5077836;28;20055;-81
2021/12/31 01:23:47;;;;;;;12.40;2.97;;;13.20;99.90;;;;;;5093567;28;20497;-83
2021/12/31 01:26:13;;;;;;;11.77;2.80;;;13.20;99.90;;;;;;5061306;28;20139;-81
2021/12/31 01:28:39;;;;;;;13.33;3.07;;;13.20;99.90;;;;;;5077998;28;20085;-80
2021/12/31 01:31:04;;;;;;;14.47;3.33;;;13.20;99.90;;;;;;5061308;28;20070;-78
2021/12/31 01:33:30;;;;;;;10.77;2.70;;;13.20;99.90;;;;;;5061376;28;20088;-81
2021/12/31 01:35:56;;;;;;;13.33;3.10;;;13.20;99.90;;;;;;5093242;28;20134;-79
2021/12/31 01:38:23;;;;;;;16.80;2.73;;;13.20;99.90;;;;;;5052618;28;20070;-80
2021/12/31 01:40:50;;;;;;;20.10;3.80;;;13.20;99.90;;;;;;5095248;28;20040;-79
2021/12/31 01:43:16;;;;;;;17.37;3.50;;;13.20;99.90;;;;;;5081590;28;21285;-79
2021/12/31 01:45:47;;;;;;;13.33;3.20;;;13.20;99.90;;;;;;5081320;28;20039;-80
2021/12/31 01:51:11;;;;;;;13.00;3.07;;;13.20;99.90;;;;;;5036902;28;20048;-82
2021/12/31 01:53:38;;;;;;;15.57;2.87;;;13.20;99.90;;;;;;5099351;28;20101;-83
2021/12/31 01:56:06;;;;;;;12.27;3.10;;;13.20;99.90;;;;;;5081578;28;20093;-81
2021/12/31 01:58:33;;;;;;;13.87;2.83;;;13.20;99.90;;;;;;5081334;28;20046;-82
2021/12/31 02:01:03;;;;;;;15.47;3.13;;;13.20;99.90;;;;;;5064893;28;20042;-80
2021/12/31 02:03:31;;;;;;;15.23;2.57;;;13.20;99.90;;;;;;5065201;28;20032;-80
2021/12/31 02:05:57;;;;;;;12.77;2.97;;;13.20;99.90;;;;;;5064020;28;20039;-80
2021/12/31 02:08:23;;;;;;;11.63;2.50;;;13.20;99.90;;;;;;5081224;28;20100;-81
2021/12/31 02:10:50;;;;;;;13.07;2.60;;;13.20;99.90;;;;;;5081308;28;20489;-81
2021/12/31 02:13:17;;;;;;;13.00;2.77;;;13.20;99.90;;;;;;5069229;28;20051;-82
2021/12/31 02:15:42;;;;;;;11.87;3.27;;;13.20;99.90;;;;;;5098598;28;20126;-80
2021/12/31 02:18:09;;;;;;;15.20;2.87;;;13.20;99.90;;;;;;5081032;28;20126;-81
2021/12/31 02:20:45;;;;;;;10.27;3.20;;;13.30;99.90;;;;;;5098423;28;20396;-80
2021/12/31 02:23:14;;;;;;;11.07;2.40;;;13.30;99.90;;;;;;5061231;28;20469;-80
2021/12/31 02:25:40;;;;;;;9.37;2.90;;;13.30;99.90;;;;;;5080653;28;20452;-82
2021/12/31 02:28:07;;;;;;;10.87;2.50;;;13.30;99.90;;;;;;5078731;28;20046;-81
2021/12/31 02:30:33;;;;;;;17.63;3.37;;;13.30;99.90;;;;;;5097482;28;20421;-81
2021/12/31 02:32:59;;;;;;;12.90;2.90;;;13.30;99.90;;;;;;5081506;28;20043;-81
2021/12/31 02:35:26;;;;;;;11.97;3.00;;;13.30;99.90;;;;;;5080197;28;20040;-80
2021/12/31 02:37:53;;;;;;;12.07;2.93;;;13.30;99.90;;;;;;5063633;28;20054;-80
2021/12/31 02:40:19;;;;;;;13.23;3.33;;;13.30;99.90;;;;;;5081511;28;20094;-79
2021/12/31 02:42:45;;;;;;;13.80;3.17;;;13.30;99.90;;;;;;5080943;28;20088;-80
2021/12/31 02:45:12;;;;;;;11.23;3.90;;;13.30;99.90;;;;;;5079665;28;20044;-80
2021/12/31 02:47:43;;;;;;;13.07;3.60;;;13.30;99.90;;;;;;5097081;28;20093;-78
2021/12/31 02:50:12;;;;;;;9.47;3.60;;;13.30;99.90;;;;;;5097868;28;20043;-80
2021/12/31 02:52:37;;;;;;;12.13;3.50;;;13.30;99.90;;;;;;5067147;28;20472;-81
2021/12/31 02:55:05;;;;;;;8.40;3.60;;;13.30;99.90;;;;;;5080919;28;20063;-80
2021/12/31 02:57:32;;;;;;;12.87;3.97;;;13.30;99.90;;;;;;5064781;28;20475;-80
2021/12/31 02:59:59;;;;;;;10.70;3.70;;;13.30;99.90;;;;;;5097403;28;20047;-80
2021/12/31 03:02:25;;;;;;;11.57;4.17;;;13.30;99.90;;;;;;5078503;28;20035;-80
2021/12/31 03:04:52;;;;;;;11.50;4.20;;;13.30;99.90;;;;;;5097414;28;20097;-79
2021/12/31 03:07:20;;;;;;;12.50;4.23;;;13.30;99.90;;;;;;5062286;28;20036;-80
2021/12/31 03:09:48;;;;;;;9.23;3.93;;;13.30;99.90;;;;;;5097470;28;20126;-81
2021/12/31 03:12:15;;;;;;;11.53;3.93;;;13.30;99.90;;;;;;5079996;28;20043;-79
2021/12/31 03:14:43;;;;;;;12.30;4.67;;;13.30;99.90;;;;;;5080230;28;20101;-79
2021/12/31 03:17:09;;;;;;;8.70;4.10;;;13.30;99.90;;;;;;5062000;28;20042;-81
2021/12/31 03:19:35;;;;;;;8.87;3.97;;;13.30;99.90;;;;;;5078118;28;20139;-82
2021/12/31 03:22:01;;;;;;;12.87;4.70;;;13.40;99.90;;;;;;5080022;28;20023;-80
2021/12/31 03:24:27;;;;;;;12.90;4.80;;;13.40;99.90;;;;;;5079800;28;20055;-80
2021/12/31 03:26:53;;;;;;;11.37;4.63;;;13.40;99.90;;;;;;5097212;28;20039;-81
2021/12/31 03:29:20;;;;;;;12.33;5.03;;;13.40;99.90;;;;;;5095581;27;20040;-80
2021/12/31 03:31:46;;;;;;;10.37;4.57;;;13.40;99.90;;;;;;5060525;28;20572;-81
2021/12/31 03:34:13;;;;;;;8.10;4.13;;;13.40;99.90;;;;;;5079423;28;20110;-80
2021/12/31 03:36:39;;;;;;;9.27;4.43;;;13.50;99.90;;;;;;5077855;28;20042;-81
2021/12/31 03:39:05;;;;;;;9.70;4.33;;;13.50;99.90;;;;;;5080780;28;20043;-82
2021/12/31 03:41:31;;;;;;;7.73;4.20;;;13.50;99.90;;;;;;5080016;27;20036;-80
2021/12/31 03:43:57;;;;;;;9.10;4.37;;;13.50;99.90;;;;;;5089082;28;20407;-81
2021/12/31 03:46:24;;;;;;;9.43;3.70;;;13.50;99.90;;;;;;5078538;27;20035;-79
2021/12/31 03:48:49;;;;;;;10.87;3.80;;;13.50;99.90;;;;;;5080139;28;20463;-80
2021/12/31 03:51:15;;;;;;;8.23;3.40;;;13.50;99.90;;;;;;5092740;28;20126;-84
2021/12/31 03:53:41;;;;;;;8.50;3.70;;;13.50;99.90;;;;;;5079427;28;20451;-77
2021/12/31 03:56:07;;;;;;;10.00;3.77;;;13.50;99.90;;;;;;5096493;27;20639;-80
2021/12/31 03:58:32;;;;;;;9.23;4.10;;;13.50;99.90;;;;;;5062986;28;20044;-80
2021/12/31 04:00:58;;;;;;;12.77;3.80;;;13.50;99.90;;;;;;5079418;27;20054;-79
2021/12/31 04:03:25;;;;;;;11.17;4.10;;;13.50;99.90;;;;;;5096253;28;20043;-81
2021/12/31 04:05:51;;;;;;;9.00;4.10;;;13.50;99.90;;;;;;5096500;28;20377;-82
2021/12/31 04:08:17;;;;;;;9.73;4.03;;;13.50;99.90;;;;;;5095838;28;20043;-80
2021/12/31 04:10:43;;;;;;;10.20;3.53;;;13.50;99.90;;;;;;5096834;28;20576;-81
2021/12/31 04:13:09;;;;;;;10.70;4.03;;;13.50;99.90;;;;;;5080064;28;20043;-81
2021/12/31 04:15:35;;;;;;;7.27;3.93;;;13.50;99.90;;;;;;5095564;27;20547;-81
2021/12/31 04:18:01;;;;;;;10.57;4.00;;;13.60;99.90;;;;;;5078481;28;20090;-81
2021/12/31 04:21:01;;;;;;;16.13;4.07;;;13.50;99.90;;;;;;5079336;28;20501;-80
2021/12/31 04:23:28;;;;;;;11.07;4.50;;;13.50;99.90;;;;;;5075771;28;20048;-80
2021/12/31 04:25:54;;;;;;;;;;;13.50;99.90;;;;;;5080239;28;20059;-81
2021/12/31 04:28:20;;;;;;;6.63;4.27;;;13.50;99.90;;;;;;5079357;28;19977;-81
2021/12/31 04:30:46;;;;;;;9.30;4.53;;;13.50;99.90;;;;;;5078221;28;20066;-80
2021/12/31 04:33:11;;;;;;;6.33;4.00;;;13.50;99.90;;;;;;5077942;28;20047;-80
2021/12/31 04:35:38;;;;;;;10.80;4.70;;;13.50;99.90;;;;;;5078313;28;20412;-80
2021/12/31 04:38:04;;;;;;;9.47;4.77;;;13.50;99.90;;;;;;5094426;28;20043;-81
2021/12/31 04:40:31;;;;;;;9.73;5.00;;;13.50;99.90;;;;;;5078304;28;20046;-79
2021/12/31 04:42:57;;;;;;;10.27;4.83;;;13.50;99.90;;;;;;5078486;28;20058;-80
2021/12/31 04:45:24;;;;;;;8.30;4.63;;;13.50;99.90;;;;;;5078783;28;20039;-79
2021/12/31 04:47:51;;;;;;;7.70;4.60;;;13.40;99.90;;;;;;5095465;28;20126;-80
2021/12/31 04:50:17;;;;;;;11.17;4.70;;;13.40;99.90;;;;;;5095796;28;20039;-81
2021/12/31 04:52:44;;;;;;;10.70;4.80;;;13.50;99.90;;;;;;5078966;28;20096;-80
2021/12/31 04:55:11;;;;;;;9.13;4.60;;;13.40;99.90;;;;;;5079221;28;20443;-82
2021/12/31 04:57:37;;;;;;;8.73;3.83;;;13.40;99.90;;;;;;5078466;28;20093;-81
2021/12/31 05:00:04;;;;;;;8.93;4.33;;;13.50;99.90;;;;;;5078994;28;20044;-79
2021/12/31 05:02:30;;;;;;;8.50;4.67;;;13.50;99.90;;;;;;5085797;28;20097;-80
2021/12/31 05:04:56;;;;;;;10.33;4.17;;;13.50;99.90;;;;;;5058284;28;20434;-81
2021/12/31 05:07:22;;;;;;;8.90;4.10;;;13.50;99.90;;;;;;5093600;28;20039;-79
2021/12/31 05:09:49;;;;;;;7.57;3.83;;;13.50;99.90;;;;;;5095513;28;20133;-80
2021/12/31 05:12:20;;;;;;;8.37;3.40;;;13.40;99.90;;;;;;5094804;28;20058;-80
2021/12/31 05:14:47;;;;;;;10.63;3.30;;;13.50;99.90;;;;;;5095108;28;20027;-81
2021/12/31 05:17:13;;;;;;;6.83;3.27;;;13.50;99.90;;;;;;5094783;28;20039;-80
2021/12/31 05:19:43;;;;;;;10.33;3.10;;;13.50;99.90;;;;;;5095350;28;20423;-79
2021/12/31 05:22:10;;;;;;;10.00;3.10;;;13.50;99.90;;;;;;5096280;28;20510;-80
2021/12/31 05:24:36;;;;;;;10.40;3.30;;;13.50;99.90;;;;;;5082006;28;20050;-80
2021/12/31 05:27:04;;;;;;;5.43;2.83;;;13.50;99.90;;;;;;5093390;28;20126;-80
2021/12/31 05:29:30;;;;;;;7.60;2.77;;;13.50;99.90;;;;;;5095333;28;20082;-80
2021/12/31 05:31:55;;;;;;;7.37;3.00;;;13.50;99.90;;;;;;5095926;28;20067;-80
2021/12/31 05:34:21;;;;;;;7.33;2.73;;;13.50;99.90;;;;;;5058295;28;20044;-80
2021/12/31 05:36:48;;;;;;;5.63;2.40;;;13.50;99.90;;;;;;5071829;28;20135;-82
2021/12/31 05:39:14;;;;;;;8.93;2.60;;;13.50;99.90;;;;;;5057823;28;20422;-80
2021/12/31 05:41:40;;;;;;;5.53;2.50;;;13.50;99.90;;;;;;5095310;28;20105;-79
2021/12/31 05:44:08;;;;;;;8.83;2.70;;;13.60;99.90;;;;;;5094461;28;20118;-80
2021/12/31 05:46:34;;;;;;;10.20;2.60;;;13.50;99.90;;;;;;5077344;28;20067;-79
2021/12/31 05:49:00;;;;;;;4.33;2.20;;;13.60;99.90;;;;;;5095267;28;20039;-80
2021/12/31 05:51:26;;;;;;;6.40;2.10;;;13.60;99.90;;;;;;5077488;28;20051;-80
2021/12/31 05:53:52;;;;;;;4.60;2.20;;;13.60;99.90;;;;;;5078140;28;20508;-79
2021/12/31 05:56:17;;;;;;;5.87;2.17;;;13.60;99.90;;;;;;5077230;28;20117;-80
2021/12/31 05:58:43;;;;;;;5.67;1.90;;;13.50;99.90;;;;;;5076581;28;20108;-81
2021/12/31 06:01:10;;;;;;;5.53;2.30;;;13.50;99.90;;;;;;5077154;28;20477;-81
2021/12/31 06:03:36;;;;;;;4.80;2.20;;;13.50;99.90;;;;;;5077510;28;20489;-80
2021/12/31 06:06:02;;;;;;;4.73;2.30;;;13.50;99.90;;;;;;5060361;28;20058;-80
2021/12/31 06:08:28;;;;;;;3.90;1.97;;;13.50;99.90;;;;;;5056025;28;20063;-80
2021/12/31 06:10:54;;;;;;;4.57;2.03;;;13.40;99.90;;;;;;5075309;28;20478;-82
2021/12/31 06:13:20;;;;;;;5.27;1.77;;;13.40;99.90;;;;;;5093204;28;20471;-80
2021/12/31 06:15:48;;;;;;;7.30;2.13;;;13.40;99.90;;;;;;5093472;28;20043;-84
2021/12/31 06:18:15;;;;;;;8.03;1.70;;;13.30;99.90;;;;;;5094446;28;20043;-81
2021/12/31 06:20:41;;;;;;;5.43;2.17;;;13.30;99.90;;;;;;5094281;28;20449;-79
2021/12/31 06:23:07;;;;;;;4.83;1.80;;;13.20;99.90;;;;;;5077301;28;20046;-80
2021/12/31 06:25:33;;;;;;;4.67;1.50;;;13.20;99.90;;;;;;5077948;28;20404;-80
2021/12/31 06:28:01;;;;;;;6.40;1.90;;;13.20;99.90;;;;;;5097139;27;20035;-81
2021/12/31 06:30:27;;;;;;;4.60;1.90;;;13.30;99.90;;;;;;5081134;28;20496;-80
2021/12/31 06:32:52;;;;;;;6.67;1.90;;;13.30;99.90;;;;;;5080938;28;20081;-81
2021/12/31 06:35:19;;;;;;;6.67;2.13;;;13.30;99.90;;;;;;5064275;28;20551;-81
2021/12/31 06:37:48;;;;;;;5.13;1.77;;;13.30;99.90;;;;;;5083462;28;20043;-80
2021/12/31 06:40:14;;;;;;;5.73;1.80;;;13.30;99.90;;;;;;5090086;28;20039;-81
2021/12/31 06:42:40;;;;;;;3.73;1.70;;;13.30;99.90;;;;;;5072570;28;20085;-81
2021/12/31 06:45:07;;;;;;;5.00;1.83;;;13.30;99.90;;;;;;5080338;28;20043;-81
2021/12/31 06:47:34;;;;;;;4.13;1.73;;;13.30;99.90;;;;;;5064296;28;20075;-83
2021/12/31 06:50:00;;;;;;;9.43;2.03;;;13.30;99.90;;;;;;5080172;28;20053;-81
2021/12/31 06:52:27;;;;;;;4.20;1.90;;;13.20;99.90;;;;;;5059585;28;20123;-81
2021/12/31 06:54:53;;;;;;;6.80;1.83;;;13.20;99.90;;;;;;5072003;28;20058;-81
2021/12/31 06:57:18;;;;;;;7.73;1.90;;;13.20;99.90;;;;;;5103585;28;20052;-82
2021/12/31 06:59:44;;;;;;;4.93;2.00;;;13.10;99.90;;;;;;5119140;27;20052;-82
2021/12/31 07:02:10;;;;;;;4.13;2.00;;;13.20;99.90;;;;;;5067258;28;20123;-83
2021/12/31 07:04:35;;;;;;;4.93;2.03;;;13.10;99.90;;;;;;5062077;28;20044;-81
2021/12/31 07:07:01;;;;;;;6.97;1.90;;;13.20;99.90;;;;;;5077008;28;20046;-81
2021/12/31 07:09:28;;;;;;;7.60;2.10;;;13.20;99.90;;;;;;5099304;27;20090;-81
2021/12/31 07:11:54;;;;;;;6.63;1.90;;;13.10;99.90;;;;;;5083349;28;20465;-80
2021/12/31 07:14:20;;;;;;;4.60;1.83;;;13.00;99.90;;;;;;5069723;28;20067;-82
2021/12/31 07:16:46;;;;;;;4.07;1.83;;;13.00;99.90;;;;;;5085855;28;20048;-81
2021/12/31 07:19:11;;;;;;;6.43;1.90;;;13.10;99.90;;;;;;5085685;28;20043;-81
2021/12/31 07:21:37;;;;;;;6.07;1.87;;;13.00;99.90;;;;;;5100334;28;20039;-80
2021/12/31 07:24:03;;;;;;;3.23;1.80;;;13.00;99.90;;;;;;5066345;28;20040;-82
2021/12/31 07:26:30;;;;;;;4.17;2.27;;;13.00;99.90;;;;;;5064745;28;20040;-80
2021/12/31 07:28:56;;;;;;;3.70;1.90;;;13.00;99.90;;;;;;5084682;28;20106;-81
2021/12/31 07:31:21;;;;;;;5.17;1.83;;;12.90;99.90;;;;;;5081447;28;20118;-81
2021/12/31 07:33:47;;;;;;;6.80;2.07;;;12.90;99.90;;;;;;5064609;28;20042;-80
2021/12/31 07:36:13;;;;;;;7.00;2.03;;;12.90;99.90;;;;;;5082323;28;20047;-83
2021/12/31 07:38:46;;;;;;;6.13;1.83;;;12.90;99.90;;;;;;5081419;28;20078;-81
2021/12/31 07:41:12;;;;;;;5.97;2.33;;;12.90;99.90;;;;;;5087236;28;20043;-81
2021/12/31 07:43:39;;;;;;;7.43;1.90;;;12.90;99.90;;;;;;5083058;28;20100;-81
2021/12/31 07:46:04;;;;;;;7.57;2.10;;;12.90;99.90;;;;;;5108463;27;20830;-80
2021/12/31 07:48:30;;;;;;;5.07;1.80;;;12.90;99.90;;;;;;5090234;28;20075;-81
2021/12/31 07:50:56;;;;;;;5.17;1.90;;;12.90;99.90;;;;;;5080674;28;20421;-81
2021/12/31 07:53:22;;;;;;;7.20;2.50;;;12.80;99.90;;;;;;5071856;27;20070;-82
2021/12/31 07:55:47;;;;;;;5.87;1.83;;;12.80;99.90;;;;;;5092823;28;20043;-81
2021/12/31 07:58:13;;;;;;;5.97;2.00;;;12.80;99.90;;;;;;5088565;27;20039;-81
2021/12/31 08:00:41;;;;;;;5.30;1.90;;;12.80;99.90;;;;;;5090424;28;20055;-84
2021/12/31 08:03:06;;;;;;;6.33;2.27;;;12.80;99.90;;;;;;5066483;28;20039;-81
2021/12/31 08:05:33;;;;;;;4.13;1.80;;;12.80;99.90;;;;;;5081105;28;20043;-81
2021/12/31 08:08:01;;;;;;;6.97;2.20;;;12.80;99.90;;;;;;5080864;27;20058;-82
2021/12/31 08:10:27;;;;;;;5.80;2.10;;;12.80;99.90;;;;;;5066776;28;20035;-81
2021/12/31 08:12:53;;;;;;;6.03;2.10;;;12.80;99.90;;;;;;5097682;27;20047;-81
2021/12/31 08:15:19;;;;;;;6.03;1.90;;;12.80;99.90;;;;;;5074547;28;20127;-81
2021/12/31 08:17:46;;;;;;;5.30;2.40;;;12.80;99.90;;;;;;5067400;28;20075;-80
2021/12/31 08:20:11;;;;;;;4.83;1.73;;;12.90;99.90;;;;;;5064191;28;20056;-82
2021/12/31 08:22:37;;;;;;;6.50;2.13;;;12.90;99.90;;;;;;5086181;28;20058;-80
2021/12/31 08:25:04;;;;;;;4.77;2.30;;;12.90;99.90;;;;;;5080016;28;20061;-81
2021/12/31 08:27:29;;;;;;;3.13;1.77;;;13.00;99.90;;;;;;5082595;28;20047;-84
2021/12/31 08:29:55;;;;;;;4.07;1.80;;;13.10;99.90;;;;;;5097476;28;20047;-83
2021/12/31 08:32:21;;;;;;;6.60;2.17;;;13.10;99.90;;;;;;5059793;28;20068;-80
2021/12/31 08:34:48;;;;;;;6.70;1.73;;;13.10;99.90;;;;;;5079279;28;20080;-81
2021/12/31 08:37:14;;;;;;;4.90;1.73;;;13.10;99.90;;;;;;5095416;28;20050;-82
2021/12/31 08:39:39;;;;;;;3.43;1.70;;;13.20;99.90;;;;;;5099225;28;20040;-80
2021/12/31 08:42:06;;;;;;;6.33;2.20;;;13.10;99.90;;;;;;5080085;28;20040;-83
2021/12/31 08:44:32;;;;;;;5.77;2.00;;;13.20;99.90;;;;;;5057216;28;20101;-81
2021/12/31 08:46:57;;;;;;;6.27;2.10;;;13.20;99.90;;;;;;5080452;28;20040;-82
2021/12/31 08:49:26;;;;;;;6.17;1.80;;;13.20;99.90;;;;;;5060949;28;20104;-81
2021/12/31 08:51:53;;;;;;;4.80;1.90;;;13.20;99.90;;;;;;5080398;28;20048;-82
2021/12/31 08:54:20;;;;;;;6.27;1.90;;;13.20;99.90;;;;;;5063428;28;20047;-82
2021/12/31 08:56:46;;;;;;;6.30;2.00;;;13.30;99.90;;;;;;5097191;28;20039;-80
2021/12/31 08:59:12;;;;;;;6.90;1.60;;;13.30;99.90;;;;;;5098009;28;20046;-82
2021/12/31 09:01:38;;;;;;;6.23;1.90;;;13.30;99.90;;;;;;5083138;28;20543;-81
2021/12/31 09:04:04;;;;;;;4.23;1.77;;;13.30;99.90;;;;;;5098813;28;20040;-79
2021/12/31 09:06:30;;;;;;;5.97;1.77;;;13.20;99.90;;;;;;5079762;28;20084;-80
2021/12/31 09:08:57;;;;;;;6.03;1.90;;;13.30;99.90;;;;;;5067654;28;20112;-83
2021/12/31 09:11:23;;;;;;;5.33;1.90;;;13.30;99.90;;;;;;5079569;28;20118;-80
2021/12/31 09:13:51;;;;;;;9.27;2.00;;;13.20;99.90;;;;;;5086175;28;20063;-82
2021/12/31 09:16:17;;;;;;;3.73;1.70;;;13.20;99.90;;;;;;5087572;28;20032;-81
2021/12/31 09:18:43;;;;;;;5.17;2.47;;;13.20;99.90;;;;;;5070717;28;20065;-81
2021/12/31 09:21:10;;;;;;;4.73;2.00;;;13.20;99.90;;;;;;5102368;28;20500;-81
2021/12/31 09:23:35;;;;;;;4.97;1.80;;;13.20;99.90;;;;;;5084008;28;20051;-82
2021/12/31 09:26:03;;;;;;;5.87;2.07;;;13.20;99.90;;;;;;5065724;28;20084;-82
2021/12/31 09:28:28;;;;;;;5.73;2.10;;;13.20;99.90;;;;;;5064416;28;20039;-82
2021/12/31 09:30:54;;;;;;;5.80;2.13;;;13.20;99.90;;;;;;5099607;28;20042;-81
2021/12/31 09:33:20;;;;;;;4.97;1.90;;;13.20;99.90;;;;;;5062194;28;20063;-85
2021/12/31 09:35:45;;;;;;;5.87;2.43;;;13.20;99.90;;;;;;5077035;28;20051;-81
2021/12/31 09:38:11;;;;;;;4.87;2.10;;;13.30;99.90;;;;;;5085249;28;20051;-82
2021/12/31 09:40:38;;;;;;;7.67;2.00;;;13.30;99.90;;;;;;5081080;28;20039;-81
2021/12/31 09:43:12;;;;;;;5.53;2.43;;;13.40;99.90;;;;;;5082527;28;20366;-82
2021/12/31 09:45:40;;;;;;;;;;;13.50;99.90;;;;;;5098964;28;20051;-82
2021/12/31 09:48:06;;;;;;;6.20;1.90;;;13.50;99.90;;;;;;5110205;28;20018;-81
2021/12/31 09:50:32;;;;;;;4.50;2.00;;;13.50;99.90;;;;;;5081530;28;20500;-81
2021/12/31 09:52:58;;;;;;;6.77;2.00;;;13.50;99.90;;;;;;5082312;28;20063;-81
2021/12/31 09:55:35;;;;;;;4.37;1.77;;;13.50;99.90;;;;;;5097667;28;20427;-81
2021/12/31 09:58:01;;;;;;;8.80;2.10;;;13.50;99.90;;;;;;5082138;28;20035;-81
2021/12/31 10:00:28;;;;;;;4.70;2.30;;;13.50;99.90;;;;;;5079950;28;20447;-82
2021/12/31 10:03:08;;;;;;;8.87;2.23;;;13.40;99.90;;;;;;5082769;28;20043;-82
2021/12/31 10:05:41;;;;;;;4.00;2.23;;;13.40;99.90;;;;;;5093624;27;20542;-81
2021/12/31 10:08:16;;;;;;;5.23;2.30;;;13.30;99.90;;;;;;5110438;28;20074;-81
2021/12/31 10:10:42;;;;;;;6.85;2.10;;;13.30;99.90;;;;;;5085350;28;20093;-81
2021/12/31 10:13:08;;;;;;;6.57;2.20;;;13.30;99.90;;;;;;5084102;28;20768;-81
2021/12/31 10:15:42;;;;;;;6.53;1.80;;;13.30;99.90;;;;;;5076523;28;20054;-82
2021/12/31 10:18:09;;;;;;;8.10;2.00;;;13.30;99.90;;;;;;5072248;27;20048;-83
2021/12/31 10:20:46;;;;;;;5.43;2.30;;;13.30;99.90;;;;;;5086658;28;20409;-81
2021/12/31 10:23:13;;;;;;;4.87;2.00;;;13.30;99.90;;;;;;5070479;27;20059;-82
2021/12/31 10:25:39;;;;;;;5.10;2.43;;;13.30;99.90;;;;;;5100691;27;20039;-81
2021/12/31 10:28:08;;;;;;;4.13;2.07;;;13.30;99.90;;;;;;5103817;28;20065;-82
2021/12/31 10:30:34;;;;;;;5.73;2.50;;;13.30;99.90;;;;;;5072256;27;20070;-82
2021/12/31 10:33:01;;;;;;;6.80;2.57;;;13.30;99.90;;;;;;5100050;28;20040;-82
2021/12/31 10:35:37;;;;;;;5.07;2.47;;;13.30;99.90;;;;;;5095013;27;20061;-82
2021/12/31 10:38:06;;;;;;;6.07;2.60;;;13.30;99.90;;;;;;5087955;27;20040;-82
2021/12/31 10:40:33;;;;;;;5.73;2.20;;;13.30;99.90;;;;;;5084763;28;20043;-81
2021/12/31 10:43:11;;;;;;;4.33;2.07;;;13.30;99.90;;;;;;5082103;28;20142;-81
2021/12/31 10:45:37;;;;;;;8.50;2.63;;;13.20;99.90;;;;;;5100814;28;20054;-82
2021/12/31 10:48:09;;;;;;;4.93;2.43;;;13.20;99.90;;;;;;5083689;28;20044;-83
2021/12/31 10:50:37;;;;;;;6.10;2.53;;;13.20;99.90;;;;;;5085170;27;20051;-82
2021/12/31 10:53:11;;;;;;;9.47;2.83;;;13.20;99.90;;;;;;5069081;28;20107;-82
2021/12/31 10:55:44;;;;;;;6.73;2.80;;;13.30;99.90;;;;;;5100247;28;20028;-83
2021/12/31 10:58:12;;;;;;;6.77;2.97;;;13.20;99.90;;;;;;5070639;27;20039;-82
2021/12/31 11:00:40;;;;;;;5.70;2.67;;;13.20;99.90;;;;;;5087098;28;20489;-84
2021/12/31 11:03:08;;;;;;;5.97;3.00;;;13.20;99.90;;;;;;5083576;28;20067;-82
2021/12/31 11:05:35;;;;;;;9.23;3.27;;;13.20;99.90;;;;;;5085184;28;20096;-81
2021/12/31 11:08:02;;;;;;;7.50;2.93;;;13.20;99.90;;;;;;5070898;28;20047;-83
2021/12/31 11:10:32;;;;;;;5.93;3.07;;;13.10;99.90;;;;;;5065837;28;20047;-84
2021/12/31 11:13:01;;;;;;;6.50;3.13;;;13.10;99.90;;;;;;5065870;28;20062;-82
2021/12/31 11:15:27;;;;;;;8.50;3.50;;;13.10;99.90;;;;;;5085270;28;20057;-82
2021/12/31 11:17:53;;;;;;;10.73;3.20;;;13.10;99.90;;;;;;5102363;27;20043;-83
2021/12/31 11:20:22;;;;;;;8.47;3.67;;;13.00;99.90;;;;;;5090679;28;20489;-83
2021/12/31 11:22:49;;;;;;;9.23;3.73;;;13.00;99.90;;;;;;5103574;28;20045;-82
2021/12/31 11:25:26;;;;;;;7.97;3.43;;;13.00;99.90;;;;;;5099528;28;20582;-84
2021/12/31 11:27:53;;;;;;;7.10;3.50;;;13.00;99.90;;;;;;5114137;27;20096;-84
2021/12/31 11:30:28;;;;;;;9.83;3.40;;;12.90;99.90;;;;;;5076181;28;20134;-82
2021/12/31 11:32:57;;;;;;;5.97;3.30;;;12.90;99.90;;;;;;5086566;28;20039;-84
2021/12/31 11:35:43;;;;;;;9.23;3.77;;;12.90;99.90;;;;;;5060013;28;20473;-82
2021/12/31 11:38:15;;;;;;;9.57;4.10;;;12.90;99.90;;;;;;5104866;28;20044;-84
2021/12/31 11:40:45;;;;;;;9.10;3.77;;;12.90;99.90;;;;;;5067280;27;20058;-82
2021/12/31 11:43:20;;;;;;;8.80;3.30;;;12.90;99.90;;;;;;5076462;28;20032;-83
2021/12/31 11:46:33;;;;;;;6.80;3.50;;;12.80;99.90;;;;;;5088015;27;20039;-82
2021/12/31 11:49:01;;;;;;;7.47;3.87;;;12.80;99.90;;;;;;5041745;28;20481;-83
2021/12/31 11:51:34;;;;;;;6.90;4.00;;;12.80;99.90;;;;;;5028368;28;20506;-82
2021/12/31 11:54:16;;;;;;;7.67;3.50;;;12.80;99.90;;;;;;5034046;28;20071;-83
2021/12/31 11:57:05;;;;;;;7.90;3.63;;;12.80;99.90;;;;;;5084947;27;20097;-84
2021/12/31 11:59:34;;;;;;;10.70;3.97;;;12.80;99.90;;;;;;5088111;27;20103;-85
2021/12/31 12:02:13;;;;;;;8.03;3.97;;;12.70;99.90;;;;;;5101457;27;20408;-83
2021/12/31 12:04:40;;;;;;;7.23;3.60;;;12.80;99.90;;;;;;5091947;27;20350;-83
2021/12/31 12:07:12;;;;;;;7.03;3.60;;;12.80;99.90;;;;;;5079566;27;20048;-85
2021/12/31 12:10:24;;;;;;;14.00;4.23;;;12.80;99.90;;;;;;5089745;27;20073;-82
2021/12/31 12:12:53;;;;;;;12.13;4.20;;;12.80;99.90;;;;;;5100269;27;20118;-83
2021/12/31 12:15:25;;;;;;;8.40;4.10;;;12.70;99.90;;;;;;5092727;28;20436;-84
2021/12/31 12:17:51;;;;;;;7.70;4.00;;;12.80;99.90;;;;;;5097514;27;20035;-84
2021/12/31 12:20:22;;;;;;;7.30;4.40;;;12.70;99.90;;;;;;5078815;28;20042;-84
2021/12/31 12:22:52;;;;;;;10.27;4.63;;;12.60;99.90;;;;;;5068454;27;20172;-84
2021/12/31 12:25:20;;;;;;;12.30;4.87;;;12.60;99.90;;;;;;5069579;27;20066;-84
2021/12/31 12:27:48;;;;;;;11.53;5.67;;;12.60;99.90;;;;;;5069459;28;20059;-82
2021/12/31 12:30:15;;;;;;;10.70;5.80;;;12.50;99.90;;;;;;5072918;27;20084;-81
2021/12/31 12:35:14;;;;;;;12.57;6.40;;;12.50;99.90;;;;;;5074913;28;20067;-82
2021/12/31 12:37:40;;;;;;;11.43;6.53;;;12.50;99.90;;;;;;5089531;28;20085;-82
2021/12/31 12:40:09;;;;;;;13.17;6.73;;;12.40;99.90;;;;;;5060078;27;20092;-83
2021/12/31 12:42:35;;;;;;;10.90;6.77;;;12.40;99.90;;;;;;5072032;28;21192;-83
2021/12/31 12:45:03;;;;;;;14.40;6.70;;;12.40;99.90;;;;;;5056352;28;20067;-82
2021/12/31 12:47:29;;;;;;;12.47;6.67;;;12.40;99.90;;;;;;5094976;27;20057;-82
2021/12/31 12:49:55;;;;;;;12.87;7.57;;;12.40;99.90;;;;;;5073456;28;20125;-82
2021/12/31 12:52:21;;;;;;;12.33;6.77;;;12.30;99.90;;;;;;5105476;27;20484;-83